ADDS METAR Data INFO
IDs: Format: Raw Decoded Include TAF

Data at: 0028 UTC 11 Dec 2017

KFDR 102353Z AUTO 32004KT 10SM CLR 17/M11 A3026 RMK AO2 SLP246 T01671106 10228 20161 56004
KFDR 102253Z AUTO 29006KT 10SM CLR 21/M11 A3026 RMK AO2 SLP244 T02061111
KFDR 102153Z AUTO 27005KT 10SM CLR 23/M12 A3026 RMK AO2 SLP243 T02281117
KFDR 102053Z AUTO 28007KT 10SM CLR 22/M09 A3027 RMK AO2 SLP246 T02221094 56023
KFDR 101953Z AUTO 30009KT 10SM CLR 21/M09 A3028 RMK AO2 SLP252 T02061089
KFDR 101853Z AUTO VRB04KT 10SM CLR 19/M09 A3031 RMK AO2 SLP261 T01891089
KFDR 101753Z AUTO 29008KT 10SM CLR 17/M08 A3034 RMK AO2 SLP272 T01671078 10167 21006 50001
KFDR 101653Z AUTO 29007KT 10SM CLR 13/M07 A3036 RMK AO2 SLP278 T01331072
KFDR 101553Z AUTO 29013KT 10SM CLR 09/M07 A3035 RMK AO2 SLP280 T00891072
KFDR 101453Z AUTO 29012KT 10SM CLR 04/M08 A3034 RMK AO2 SLP277 T00441083 53006
KFDR 101353Z AUTO 29015KT 10SM CLR 01/M09 A3033 RMK AO2 SLP275 T00111089
KFDR 101253Z AUTO 30012KT 10SM CLR 02/M09 A3032 RMK AO2 SLP271 T00171089
KFDR 101153Z AUTO 29007KT 10SM CLR 00/M09 A3032 RMK AO2 SLP270 T00001089 10039 21006 53001
KFDR 101053Z AUTO 29007KT 10SM CLR 00/M09 A3031 RMK AO2 SLP264 T00001089
KFDR 100953Z AUTO 29007KT 10SM CLR 01/M09 A3031 RMK AO2 SLP264 T00061089
KFDR 100853Z AUTO 29010KT 10SM CLR 03/M08 A3032 RMK AO2 SLP264 T00331083 55004
KFDR 100753Z AUTO 28007KT 10SM CLR 03/M08 A3031 RMK AO2 SLP264 T00281083
KFDR 100653Z AUTO 29004KT 10SM CLR 03/M08 A3033 RMK AO2 SLP268 T00331078
KFDR 100553Z AUTO 30007KT 10SM CLR 04/M08 A3033 RMK AO2 SLP271 T00391078 10100 20022 401671006 51014
KFDR 100453Z AUTO 31006KT 10SM CLR 04/M08 A3032 RMK AO2 SLP266 T00391078
KFDR 100353Z AUTO 27004KT 10SM CLR 03/M08 A3030 RMK AO2 SLP263 T00281078
KFDR 100253Z AUTO 00000KT 10SM CLR 06/M08 A3029 RMK AO2 SLP258 T00561083 51010
KFDR 100153Z AUTO 00000KT 10SM CLR 07/M08 A3028 RMK AO2 SLP258 T00671078
KFDR 100053Z AUTO 33005KT 10SM CLR 08/M08 A3027 RMK AO2 SLP255 T00781078
KFDR 092353Z AUTO 34004KT 10SM CLR 09/M08 A3026 RMK AO2 SLP248 T00941078 10167 20094 53006
KFDR 092253Z AUTO 35006KT 10SM CLR 15/M07 A3025 RMK AO2 SLP244 T01501067
KFDR 092153Z AUTO 33011KT 10SM CLR 16/M07 A3024 RMK AO2 SLP240 T01611067
KFDR 092053Z AUTO 36013KT 10SM CLR 17/M07 A3024 RMK AO2 SLP238 T01671067 56021
KFDR 091953Z AUTO 33013KT 10SM CLR 15/M07 A3025 RMK AO2 SLP244 T01501067
KFDR 091853Z AUTO 35012G20KT 10SM CLR 14/M06 A3028 RMK AO2 SLP253 T01391061
KFDR 091753Z AUTO 35010G17KT 10SM CLR 12/M06 A3030 RMK AO2 SLP262 T01221056 10128 21006 51016
KFDR 091653Z AUTO 33012KT 10SM CLR 12/M06 A3030 RMK AO2 SLP262 T01171061
KFDR 091553Z AUTO 33012KT 10SM CLR 09/M06 A3029 RMK AO2 SLP258 T00891061
KFDR 091453Z AUTO 34013KT 10SM CLR 06/M06 A3026 RMK AO2 SLP248 T00611061 51029
KFDR 091353Z AUTO 31011KT 10SM CLR 01/M07 A3024 RMK AO2 SLP243 T00061067
KFDR 091253Z AUTO 31008KT 10SM CLR 00/M07 A3019 RMK AO2 SLP230 T00001072